Time;durP1;ratioP1;P1;durP2;ratioP2;P2;SDS_P1;SDS_P2;PMS_P1;PMS_P2;Temp;Humidity;BMP_temperature;BMP_pressure;BME280_temperature;BME280_humidity;BME280_pressure;Samples;Min_cycle;Max_cycle;Signal;HPM_P1;HPM_P2
2022/05/13 00:02:19;;;;;;;11.70;5.17;;;12.60;69.40;;;;;;5033298;28;20452;-60
2022/05/13 00:04:46;;;;;;;5.13;4.63;;;12.50;70.00;;;;;;5033364;28;20452;-60
2022/05/13 00:07:13;;;;;;;5.70;5.07;;;12.50;70.50;;;;;;5033270;28;20448;-60
2022/05/13 00:10:00;;;;;;;5.97;4.97;;;12.50;71.00;;;;;;5033686;28;20481;-60
2022/05/13 00:12:30;;;;;;;7.27;6.13;;;12.50;71.30;;;;;;5033434;28;20531;-61
2022/05/13 00:14:58;;;;;;;7.33;5.33;;;12.40;71.70;;;;;;5033673;28;21015;-61
2022/05/13 00:17:26;;;;;;;7.27;5.60;;;12.40;72.80;;;;;;5040905;28;20838;-61
2022/05/13 00:19:53;;;;;;;7.70;5.20;;;12.30;72.60;;;;;;5041342;28;20457;-61
2022/05/13 00:22:20;;;;;;;7.00;5.40;;;12.30;73.20;;;;;;5041593;28;20452;-60
2022/05/13 00:24:49;;;;;;;8.63;5.63;;;12.30;74.10;;;;;;5044607;28;20464;-61
2022/05/13 00:27:16;;;;;;;7.47;5.23;;;12.30;74.50;;;;;;5044333;28;20441;-61
2022/05/13 00:29:43;;;;;;;5.80;4.40;;;12.20;74.80;;;;;;5061511;22;20841;-59
2022/05/13 00:32:10;;;;;;;9.03;4.93;;;12.20;75.50;;;;;;5037090;28;20452;-59
2022/05/13 00:34:37;;;;;;;6.93;6.00;;;12.10;76.30;;;;;;5036864;28;20479;-59
2022/05/13 00:37:04;;;;;;;6.43;5.47;;;12.10;77.10;;;;;;5036839;28;20449;-59
2022/05/13 00:39:31;;;;;;;7.23;5.07;;;12.10;77.70;;;;;;5036816;28;20465;-61
2022/05/13 00:42:08;;;;;;;5.63;5.13;;;12.00;78.20;;;;;;5036416;28;20440;-59
2022/05/13 00:44:36;;;;;;;8.40;5.60;;;12.00;78.70;;;;;;5036513;28;20439;-59
2022/05/13 00:47:04;;;;;;;11.10;5.30;;;12.00;79.30;;;;;;5036688;28;20822;-59
2022/05/13 00:49:32;;;;;;;9.03;5.97;;;12.00;80.00;;;;;;5036144;28;20467;-59
2022/05/13 00:52:01;;;;;;;7.40;5.70;;;11.90;80.60;;;;;;5036440;28;20498;-59
2022/05/13 00:54:29;;;;;;;9.13;6.00;;;12.00;81.00;;;;;;5036426;28;20558;-59
2022/05/13 00:56:58;;;;;;;7.00;6.30;;;12.00;81.00;;;;;;5036123;28;20452;-59
2022/05/13 00:59:29;;;;;;;6.70;5.97;;;12.00;81.10;;;;;;5036311;28;20503;-58
2022/05/13 01:01:57;;;;;;;6.63;6.03;;;12.00;81.30;;;;;;5036436;28;20433;-59
2022/05/13 01:04:26;;;;;;;11.13;5.90;;;12.00;81.40;;;;;;5036376;28;20480;-59
2022/05/13 01:06:56;;;;;;;5.40;4.87;;;11.90;81.50;;;;;;5036391;28;20463;-59
2022/05/13 01:09:27;;;;;;;6.43;5.83;;;11.90;81.80;;;;;;5036470;28;20465;-60
2022/05/13 01:11:57;;;;;;;8.97;6.10;;;11.90;82.00;;;;;;5036176;28;20448;-60
2022/05/13 01:14:30;;;;;;;6.30;5.70;;;11.80;82.10;;;;;;5036129;28;20812;-60
2022/05/13 01:19:56;;;;;;;5.90;5.40;;;;;;;;;;5024749;28;20532;-59
2022/05/13 01:22:25;;;;;;;10.27;6.40;;;;;;;;;;5036103;28;20963;-59
2022/05/13 01:24:52;;;;;;;6.33;5.73;;;;;;;;;;5035673;28;20516;-60
2022/05/13 01:27:19;;;;;;;8.23;5.70;;;;;;;;;;5035806;28;20456;-59
2022/05/13 01:29:48;;;;;;;6.97;5.83;;;;;;;;;;5035818;28;20473;-59
2022/05/13 01:32:16;;;;;;;6.03;5.43;;;;;;;;;;5035830;28;21034;-59
2022/05/13 01:34:43;;;;;;;7.80;5.90;;;;;;;;;;5036056;28;20483;-59
2022/05/13 01:37:10;;;;;;;8.60;5.93;;;;;;;;;;5035158;28;20453;-59
2022/05/13 01:39:39;;;;;;;8.47;5.60;;;;;;;;;;5035778;28;20471;-59
2022/05/13 01:42:07;;;;;;;12.47;6.10;;;;;;;;;;5036197;28;20822;-59
2022/05/13 01:44:34;;;;;;;6.40;5.80;;;;;;;;;;5035465;28;20515;-59
2022/05/13 01:47:01;;;;;;;7.40;6.70;;;;;;;;;;5035377;28;20448;-59
2022/05/13 01:49:29;;;;;;;6.13;5.43;;;;;;;;;;5035542;28;20504;-59
2022/05/13 01:51:56;;;;;;;7.37;6.50;;;;;;;;;;5035623;28;20452;-59
2022/05/13 01:54:23;;;;;;;6.23;5.73;;;;;;;;;;5035521;28;20484;-59
2022/05/13 01:56:52;;;;;;;7.73;5.23;;;;;;;;;;5035423;28;20456;-59
2022/05/13 01:59:19;;;;;;;6.57;5.97;;;;;;;;;;5035241;28;20469;-59
2022/05/13 02:01:47;;;;;;;7.80;6.20;;;;;;;;;;5034919;28;20480;-59
2022/05/13 02:04:13;;;;;;;6.37;5.77;;;;;;;;;;5034832;28;20944;-60
2022/05/13 02:06:40;;;;;;;6.27;5.67;;;;;;;;;;5035188;28;20445;-59
2022/05/13 02:09:07;;;;;;;6.23;5.67;;;;;;;;;;5035135;28;20472;-59
2022/05/13 02:11:36;;;;;;;13.97;5.30;;;;;;;;;;5034746;28;20448;-60
2022/05/13 02:14:05;;;;;;;7.07;6.03;;;;;;;;;;5035132;28;20476;-60
2022/05/13 02:16:32;;;;;;;7.27;6.07;;;;;;;;;;5034998;28;20445;-59
2022/05/13 02:18:59;;;;;;;7.60;5.50;;;;;;;;;;5034588;28;20991;-61
2022/05/13 02:21:27;;;;;;;7.23;6.33;;;;;;;;;;5034903;28;20453;-59
2022/05/13 02:23:54;;;;;;;6.47;5.87;;;;;;;;;;5034961;28;20448;-58
2022/05/13 02:26:22;;;;;;;7.07;6.40;;;;;;;;;;5034851;28;20449;-60
2022/05/13 02:28:49;;;;;;;8.20;6.83;;;;;;;;;;5034436;28;20476;-59
2022/05/13 02:31:17;;;;;;;6.87;6.27;;;;;;;;;;5034767;28;20448;-59
2022/05/13 02:33:45;;;;;;;8.63;6.30;;;;;;;;;;5034610;28;20499;-59
2022/05/13 02:36:13;;;;;;;8.57;6.67;;;;;;;;;;5034485;28;20503;-59
2022/05/13 02:38:40;;;;;;;8.60;7.27;;;;;;;;;;5034443;28;20876;-56
2022/05/13 02:41:14;;;;;;;10.70;7.40;;;;;;;;;;5034547;28;20812;-59
2022/05/13 02:43:42;;;;;;;8.23;7.20;;;;;;;;;;5034372;28;20429;-59
2022/05/13 02:46:09;;;;;;;7.70;6.90;;;;;;;;;;5034480;28;20512;-59
2022/05/13 02:48:38;;;;;;;8.30;7.50;;;;;;;;;;5033279;28;20460;-59
2022/05/13 02:51:06;;;;;;;8.07;7.27;;;;;;;;;;5034434;28;20560;-59
2022/05/13 02:53:33;;;;;;;8.70;7.90;;;;;;;;;;5034651;28;20444;-59
2022/05/13 02:56:00;;;;;;;8.83;7.90;;;;;;;;;;5034674;28;20484;-59
2022/05/13 02:58:28;;;;;;;9.20;8.30;;;;;;;;;;5034610;28;20492;-59
2022/05/13 03:00:55;;;;;;;9.13;7.00;;;;;;;;;;5034307;28;20452;-59
2022/05/13 03:03:22;;;;;;;8.90;7.40;;;;;;;;;;5034278;28;20456;-59
2022/05/13 03:05:51;;;;;;;8.17;7.43;;;;;;;;;;5033800;28;20441;-59
2022/05/13 03:08:19;;;;;;;7.97;7.27;;;;;;;;;;5033712;28;20468;-59
2022/05/13 03:10:46;;;;;;;9.00;7.90;;;;;;;;;;5033671;28;20445;-60
2022/05/13 03:13:15;;;;;;;11.33;7.30;;;;;;;;;;5033546;28;20560;-60
2022/05/13 03:15:42;;;;;;;9.90;7.90;;;;;;;;;;5033769;28;20607;-60
2022/05/13 03:18:09;;;;;;;7.93;7.13;;;;;;;;;;5033351;28;20449;-59
2022/05/13 03:20:37;;;;;;;9.23;8.33;;;;;;;;;;5033448;28;20440;-59
2022/05/13 03:23:06;;;;;;;8.03;6.67;;;;;;;;;;5033287;28;20480;-59
2022/05/13 03:25:33;;;;;;;8.40;7.60;;;;;;;;;;5033356;28;20460;-59
2022/05/13 03:28:00;;;;;;;7.80;7.00;;;;;;;;;;5033358;28;20449;-59
2022/05/13 03:30:28;;;;;;;10.07;7.73;;;;;;;;;;5033214;28;20437;-59
2022/05/13 03:32:56;;;;;;;8.30;7.40;;;;;;;;;;5033517;28;20472;-60
2022/05/13 03:35:23;;;;;;;9.87;8.10;;;;;;;;;;5033337;28;20487;-60
2022/05/13 03:37:51;;;;;;;11.37;8.37;;;;;;;;;;5033368;28;20449;-59
2022/05/13 03:40:19;;;;;;;9.10;8.30;;;;;;;;;;5033550;28;20467;-59
2022/05/13 03:42:47;;;;;;;9.67;8.73;;;;;;;;;;5033118;28;20449;-59
2022/05/13 03:45:16;;;;;;;10.70;7.90;;;;;;;;;;5033304;28;20460;-59
2022/05/13 03:47:44;;;;;;;10.60;7.70;;;;;;;;;;5032966;28;20455;-59
2022/05/13 03:50:11;;;;;;;8.83;7.73;;;;;;;;;;5033184;28;20477;-59
2022/05/13 03:52:39;;;;;;;14.43;9.10;;;;;;;;;;5033187;28;20461;-59
2022/05/13 03:55:07;;;;;;;11.73;8.47;;;;;;;;;;5033190;28;20476;-59
2022/05/13 03:57:36;;;;;;;8.77;7.63;;;;;;;;;;5033106;28;20491;-59
2022/05/13 04:00:03;;;;;;;8.30;7.50;;;;;;;;;;5032428;28;20480;-60
2022/05/13 04:02:30;;;;;;;8.57;7.20;;;;;;;;;;5033134;28;20846;-59
2022/05/13 04:09:44;;;;;;;11.40;8.30;;;;;;;;;;5091062;27;20622;-58
2022/05/13 04:17:47;;;;;;;9.10;8.13;;;11.40;95.70;;;;;;5051776;28;20766;-59
2022/05/13 04:20:21;;;;;;;9.20;7.57;;;11.80;95.30;;;;;;5090614;28;20465;-60
2022/05/13 04:22:48;;;;;;;7.90;6.80;;;12.00;94.80;;;;;;5090999;28;20423;-59
2022/05/13 04:25:17;;;;;;;9.17;7.70;;;12.20;94.10;;;;;;5090318;28;20466;-59
2022/05/13 04:27:45;;;;;;;8.43;6.60;;;12.50;93.50;;;;;;5090094;28;20475;-60
2022/05/13 04:30:13;;;;;;;8.40;7.53;;;12.60;92.70;;;;;;5090081;28;20557;-60
2022/05/13 04:32:41;;;;;;;8.73;7.10;;;12.70;91.90;;;;;;5090688;28;20442;-59
2022/05/13 04:35:09;;;;;;;9.60;7.13;;;12.80;91.60;;;;;;5090274;28;20449;-59
2022/05/13 04:37:38;;;;;;;8.13;7.33;;;12.80;91.20;;;;;;5089968;28;20442;-59
2022/05/13 04:40:07;;;;;;;6.80;6.10;;;12.80;90.90;;;;;;5089985;28;20478;-59
2022/05/13 04:45:29;;;;;;;7.27;6.60;;;13.00;90.40;;;;;;5041615;28;20440;-59
2022/05/13 04:48:16;;;;;;;12.37;7.03;;;13.10;89.80;;;;;;5089815;28;20482;-60
2022/05/13 04:50:52;;;;;;;10.33;7.53;;;13.10;88.90;;;;;;5089956;28;20507;-59
2022/05/13 04:53:21;;;;;;;8.67;7.23;;;13.30;88.50;;;;;;5089416;28;20434;-60
2022/05/13 04:55:50;;;;;;;8.63;7.00;;;13.40;87.50;;;;;;5089406;28;20458;-60
2022/05/13 04:58:18;;;;;;;7.83;7.03;;;13.70;86.50;;;;;;5089365;28;20459;-60
2022/05/13 05:00:47;;;;;;;9.00;7.13;;;13.90;84.50;;;;;;5089441;28;20457;-59
2022/05/13 05:03:14;;;;;;;7.70;6.90;;;14.10;82.70;;;;;;5089363;28;20444;-59
2022/05/13 05:05:42;;;;;;;7.40;6.67;;;14.30;81.00;;;;;;5089222;28;20942;-59
2022/05/13 05:08:10;;;;;;;6.70;6.10;;;14.30;79.40;;;;;;5088807;28;20478;-59
2022/05/13 05:10:37;;;;;;;7.47;6.77;;;14.30;78.30;;;;;;5089100;28;20451;-60
2022/05/13 05:13:07;;;;;;;7.40;6.70;;;14.30;77.70;;;;;;5088942;28;20453;-60
2022/05/13 05:15:36;;;;;;;7.20;6.50;;;14.20;77.20;;;;;;5089012;28;20541;-60
2022/05/13 05:18:04;;;;;;;9.27;6.40;;;14.30;77.10;;;;;;5089094;28;20449;-59
2022/05/13 05:20:31;;;;;;;7.57;6.20;;;14.30;76.50;;;;;;5078329;28;20482;-60
2022/05/13 05:22:58;;;;;;;7.87;6.47;;;14.30;75.70;;;;;;5075834;28;20450;-60
2022/05/13 05:25:28;;;;;;;7.63;6.50;;;14.40;75.20;;;;;;5075630;28;20451;-60
2022/05/13 05:27:56;;;;;;;9.70;7.00;;;14.40;74.30;;;;;;5075509;28;20462;-59
2022/05/13 05:30:24;;;;;;;10.37;6.60;;;14.50;73.70;;;;;;5075604;28;20442;-59
2022/05/13 05:32:52;;;;;;;9.30;5.80;;;14.60;73.00;;;;;;5075382;28;20454;-59
2022/05/13 05:35:22;;;;;;;7.57;6.10;;;14.60;72.00;;;;;;5075324;28;20450;-58
2022/05/13 05:37:49;;;;;;;6.00;5.27;;;14.50;71.40;;;;;;5075172;28;20494;-59
2022/05/13 05:40:16;;;;;;;9.77;5.77;;;14.50;71.30;;;;;;5074771;28;20943;-59
2022/05/13 05:42:44;;;;;;;7.10;6.07;;;14.50;71.10;;;;;;5074948;28;20818;-61
2022/05/13 05:45:14;;;;;;;6.50;4.93;;;14.40;70.80;;;;;;5075089;28;20454;-58
2022/05/13 05:47:41;;;;;;;8.87;5.90;;;14.40;70.70;;;;;;5074912;28;20471;-59
2022/05/13 05:50:13;;;;;;;6.53;5.17;;;14.30;70.40;;;;;;5075031;28;20483;-58
2022/05/13 05:52:40;;;;;;;9.40;4.73;;;14.30;70.90;;;;;;5075210;28;20435;-59
2022/05/13 05:58:06;;;;;;;9.00;5.10;;;14.40;69.70;;;;;;5074773;28;20845;-59
2022/05/13 06:00:38;;;;;;;9.23;4.80;;;14.50;69.10;;;;;;5074766;28;20441;-59
2022/05/13 06:03:06;;;;;;;9.57;3.90;;;14.50;68.50;;;;;;5074613;28;20439;-59
2022/05/13 06:05:35;;;;;;;5.17;4.40;;;14.60;68.30;;;;;;5075038;28;20539;-58
2022/05/13 06:08:05;;;;;;;6.40;3.97;;;14.60;67.80;;;;;;5074389;28;20521;-59
2022/05/13 06:10:35;;;;;;;5.77;3.83;;;14.70;67.30;;;;;;5074480;28;20451;-59
2022/05/13 06:13:04;;;;;;;7.30;3.57;;;14.80;66.40;;;;;;5074302;28;20455;-59
2022/05/13 06:15:32;;;;;;;6.07;3.93;;;15.00;65.60;;;;;;5074836;28;20506;-58
2022/05/13 06:17:59;;;;;;;6.13;3.50;;;15.10;64.50;;;;;;5074271;28;20483;-59
2022/05/13 06:20:28;;;;;;;4.20;3.10;;;15.20;63.30;;;;;;5074551;28;20447;-59
2022/05/13 06:22:58;;;;;;;6.60;3.63;;;15.30;62.40;;;;;;5075065;28;20831;-58
2022/05/13 06:25:25;;;;;;;5.53;3.40;;;15.40;61.50;;;;;;5074527;28;20878;-59
2022/05/13 06:27:54;;;;;;;5.47;2.97;;;15.40;60.70;;;;;;5074565;28;20906;-59
2022/05/13 06:30:25;;;;;;;5.30;3.47;;;15.50;59.90;;;;;;5074461;28;20526;-59
2022/05/13 06:32:52;;;;;;;6.47;3.13;;;15.50;59.50;;;;;;5073473;28;20435;-60
2022/05/13 06:35:20;;;;;;;5.50;4.03;;;15.50;59.10;;;;;;5073974;28;20450;-59
2022/05/13 06:37:47;;;;;;;5.67;2.80;;;15.50;58.90;;;;;;5083555;22;20579;-60
2022/05/13 06:40:16;;;;;;;4.37;3.63;;;15.60;58.80;;;;;;5035946;28;20448;-60
2022/05/13 06:42:43;;;;;;;4.73;3.37;;;15.60;58.20;;;;;;5036898;28;20455;-60
2022/05/13 06:45:10;;;;;;;6.73;3.70;;;15.70;58.00;;;;;;5036536;28;20448;-61
2022/05/13 06:47:38;;;;;;;6.00;3.73;;;15.80;57.80;;;;;;5036731;28;20465;-60
2022/05/13 06:50:08;;;;;;;7.53;3.93;;;15.80;57.30;;;;;;5036500;28;21008;-60
2022/05/13 06:52:35;;;;;;;6.87;3.53;;;15.80;57.30;;;;;;5035265;28;20448;-60
2022/05/13 06:55:02;;;;;;;5.60;3.50;;;15.80;57.30;;;;;;5035763;28;20453;-59
2022/05/13 06:57:31;;;;;;;6.67;3.40;;;15.80;57.20;;;;;;5034301;28;20475;-58
2022/05/13 06:59:58;;;;;;;5.83;3.60;;;15.70;57.40;;;;;;5034126;28;20795;-61
2022/05/13 07:02:27;;;;;;;7.70;4.00;;;15.80;57.70;;;;;;5034437;28;20468;-59
2022/05/13 07:04:54;;;;;;;4.60;3.70;;;15.80;57.60;;;;;;5035233;28;20452;-61
2022/05/13 07:07:21;;;;;;;5.20;3.80;;;15.90;57.40;;;;;;5034996;28;20469;-60
2022/05/13 07:09:48;;;;;;;7.50;4.60;;;15.80;57.50;;;;;;5034253;28;20907;-61
2022/05/13 07:12:16;;;;;;;7.40;4.17;;;15.80;57.50;;;;;;5034601;28;20448;-61
2022/05/13 07:14:44;;;;;;;7.47;4.47;;;15.70;57.60;;;;;;5034482;28;20848;-60
2022/05/13 07:17:11;;;;;;;5.23;3.80;;;15.60;57.70;;;;;;5034919;28;20469;-60
2022/05/13 07:19:39;;;;;;;5.87;3.93;;;15.60;57.80;;;;;;5034321;28;20955;-60
2022/05/13 07:22:06;;;;;;;5.17;3.50;;;15.50;57.80;;;;;;5034319;28;20615;-60
2022/05/13 07:24:34;;;;;;;6.73;3.53;;;15.50;58.10;;;;;;5034132;28;20444;-60
2022/05/13 07:27:01;;;;;;;10.33;4.67;;;15.50;58.00;;;;;;5033953;28;20444;-60
2022/05/13 07:29:28;;;;;;;8.90;3.77;;;15.50;58.10;;;;;;5033652;28;20551;-60
2022/05/13 07:31:57;;;;;;;5.53;3.70;;;15.70;58.40;;;;;;5033868;28;20445;-61
2022/05/13 07:34:24;;;;;;;5.20;3.60;;;15.90;58.30;;;;;;5033836;28;20453;-60
2022/05/13 07:36:54;;;;;;;7.30;4.13;;;16.20;57.70;;;;;;5033403;28;20448;-62
2022/05/13 07:42:13;;;;;;;7.00;3.10;;;16.30;56.50;;;;;;5008738;28;20441;-60
2022/05/13 07:44:41;;;;;;;7.23;3.87;;;16.20;56.50;;;;;;5033729;28;20544;-60
2022/05/13 07:47:11;;;;;;;5.03;3.43;;;16.30;56.60;;;;;;5033317;28;20453;-59
2022/05/13 07:49:39;;;;;;;8.10;3.40;;;16.60;56.30;;;;;;5033063;28;20485;-61
2022/05/13 07:52:07;;;;;;;5.43;3.13;;;17.00;55.70;;;;;;5031633;28;20453;-59
2022/05/13 07:54:35;;;;;;;4.03;2.70;;;17.40;54.50;;;;;;5034112;28;20881;-61
2022/05/13 07:57:03;;;;;;;4.60;2.30;;;17.60;53.50;;;;;;5034268;28;20453;-59
2022/05/13 08:00:24;;;;;;;4.80;2.63;;;17.60;52.90;;;;;;5033240;28;20449;-61
2022/05/13 08:02:22;;;;;;;4.95;2.60;;;17.70;52.70;;;;;;5031995;28;20430;-60
2022/05/13 08:04:49;;;;;;;7.37;3.30;;;17.70;52.50;;;;;;5033024;28;20221;-60
2022/05/13 08:07:17;;;;;;;6.03;3.20;;;17.70;52.60;;;;;;5033366;28;20469;-59
2022/05/13 08:09:44;;;;;;;8.83;3.43;;;17.60;52.70;;;;;;5035373;28;20511;-61
2022/05/13 08:12:12;;;;;;;6.67;2.90;;;17.50;53.10;;;;;;5032641;28;20960;-60
2022/05/13 08:14:39;;;;;;;4.20;2.67;;;17.60;53.20;;;;;;5032967;28;20449;-60
2022/05/13 08:17:08;;;;;;;8.23;2.20;;;17.70;53.00;;;;;;5031930;28;20452;-59
2022/05/13 08:19:50;;;;;;;6.33;3.10;;;18.00;52.70;;;;;;5033125;28;20448;-59
2022/05/13 08:22:17;;;;;;;5.80;2.80;;;18.10;52.30;;;;;;5032753;28;20509;-59
2022/05/13 08:24:44;;;;;;;6.30;2.80;;;18.10;52.00;;;;;;5032044;28;20452;-59
2022/05/13 08:27:11;;;;;;;6.93;3.10;;;17.80;52.10;;;;;;5032803;28;20825;-58
2022/05/13 08:29:38;;;;;;;6.23;3.83;;;17.70;52.60;;;;;;5033050;28;20481;-59
2022/05/13 08:32:06;;;;;;;6.73;2.30;;;17.60;53.10;;;;;;5033332;28;20455;-59
2022/05/13 08:34:33;;;;;;;8.97;3.83;;;17.60;53.20;;;;;;5032666;28;20456;-60
2022/05/13 08:37:02;;;;;;;13.87;3.00;;;17.70;53.10;;;;;;5033528;28;20883;-59
2022/05/13 08:39:29;;;;;;;4.30;2.47;;;17.70;53.20;;;;;;5032660;28;20432;-60
2022/05/13 08:42:10;;;;;;;6.90;3.43;;;17.80;53.10;;;;;;5032274;28;20502;-60
2022/05/13 08:44:38;;;;;;;8.07;3.77;;;17.80;52.70;;;;;;5032773;28;20457;-61
2022/05/13 08:47:14;;;;;;;10.10;3.33;;;17.80;52.60;;;;;;5031122;28;20460;-58
2022/05/13 08:49:49;;;;;;;7.57;2.87;;;17.50;52.90;;;;;;5032571;28;20464;-59
2022/05/13 08:55:18;;;;;;;8.30;2.77;;;17.10;54.10;;;;;;5034253;28;20444;-61
2022/05/13 08:57:49;;;;;;;5.90;2.90;;;17.10;54.40;;;;;;5036123;28;21007;-58
2022/05/13 09:00:23;;;;;;;5.33;2.80;;;17.10;54.50;;;;;;5035975;28;20432;-58
2022/05/13 09:02:56;;;;;;;3.77;2.90;;;16.90;54.60;;;;;;5036621;28;20433;-60
2022/05/13 09:05:28;;;;;;;9.17;3.93;;;16.70;55.00;;;;;;5038227;28;20429;-59
2022/05/13 09:08:00;;;;;;;5.30;2.33;;;16.60;55.30;;;;;;5036161;28;20519;-59
2022/05/13 09:10:28;;;;;;;6.77;3.17;;;16.50;55.70;;;;;;5036477;28;21059;-60
2022/05/13 09:13:03;;;;;;;5.30;3.10;;;16.50;56.00;;;;;;5037379;28;20869;-59
2022/05/13 09:15:36;;;;;;;6.30;2.90;;;16.60;56.30;;;;;;5039735;28;20436;-60
2022/05/13 09:18:07;;;;;;;7.27;3.63;;;16.80;56.30;;;;;;5040569;28;20488;-59
2022/05/13 09:20:43;;;;;;;5.40;3.17;;;17.00;55.90;;;;;;5038482;28;20457;-60
2022/05/13 09:23:13;;;;;;;5.60;2.63;;;17.30;55.50;;;;;;5040846;28;20457;-59
2022/05/13 09:25:59;;;;;;;5.20;3.37;;;17.30;54.80;;;;;;5041282;28;20844;-59
2022/05/13 09:28:28;;;;;;;8.52;3.40;;;17.30;54.80;;;;;;5040537;28;20536;-60
2022/05/13 09:31:05;;;;;;;7.30;3.70;;;17.40;54.90;;;;;;5046899;28;20217;-60
2022/05/13 09:33:34;;;;;;;5.57;3.50;;;17.40;54.70;;;;;;5050651;28;20448;-60
2022/05/13 09:36:08;;;;;;;9.10;4.43;;;17.30;54.60;;;;;;5050945;28;20521;-57
2022/05/13 09:38:46;;;;;;;6.50;3.30;;;17.40;54.70;;;;;;5051949;28;20492;-60
2022/05/13 09:41:15;;;;;;;5.23;2.90;;;17.40;54.40;;;;;;5051725;28;20457;-59
2022/05/13 09:43:43;;;;;;;7.97;3.10;;;17.30;54.20;;;;;;5042157;28;20445;-60
2022/05/13 09:46:12;;;;;;;6.63;2.90;;;17.30;54.20;;;;;;5036449;28;20460;-60
2022/05/13 09:48:51;;;;;;;9.53;3.50;;;17.20;53.70;;;;;;5039108;28;20882;-59
2022/05/13 09:51:26;;;;;;;7.68;2.85;;;17.10;53.60;;;;;;5037958;28;20453;-61
2022/05/13 09:54:16;;;;;;;7.85;3.20;;;17.30;53.70;;;;;;5037660;28;20433;-59
2022/05/13 09:56:46;;;;;;;5.00;2.53;;;17.50;52.70;;;;;;5041607;28;20201;-57
2022/05/13 09:59:21;;;;;;;6.83;2.67;;;17.70;52.30;;;;;;5037290;28;20969;-59
2022/05/13 10:01:48;;;;;;;5.77;2.57;;;17.80;52.00;;;;;;5038812;28;20472;-59
2022/05/13 10:04:21;;;;;;;6.60;3.07;;;17.90;50.80;;;;;;5038840;28;20456;-60
2022/05/13 10:06:49;;;;;;;6.30;2.67;;;17.80;50.90;;;;;;5039338;28;20450;-59
2022/05/13 10:15:12;;;;;;;6.93;2.37;;;18.30;49.90;;;;;;5034731;28;20447;-61
2022/05/13 10:17:48;;;;;;;6.37;2.80;;;18.30;49.50;;;;;;5034927;28;20461;-60
2022/05/13 10:20:26;;;;;;;5.50;2.63;;;18.20;49.10;;;;;;5034363;28;20428;-60
2022/05/13 10:23:00;;;;;;;5.07;2.70;;;18.10;49.40;;;;;;5034384;28;20448;-60
2022/05/13 10:25:33;;;;;;;7.43;2.90;;;18.00;49.60;;;;;;5035622;28;20451;-60
2022/05/13 10:28:08;;;;;;;3.33;2.50;;;18.10;49.70;;;;;;5034499;28;20473;-61
2022/05/13 10:30:42;;;;;;;5.67;3.10;;;18.40;49.50;;;;;;5034819;28;20838;-61
2022/05/13 10:33:13;;;;;;;6.33;3.03;;;18.60;48.70;;;;;;5034895;28;20885;-59
2022/05/13 10:35:50;;;;;;;8.10;3.00;;;18.80;48.30;;;;;;5034785;28;20425;-60
2022/05/13 10:38:24;;;;;;;6.60;2.47;;;19.00;47.90;;;;;;5034260;28;20445;-60
2022/05/13 10:40:55;;;;;;;3.30;2.10;;;19.30;47.40;;;;;;5034678;28;20666;-60
2022/05/13 10:43:33;;;;;;;5.30;2.80;;;19.50;46.10;;;;;;5034568;28;20439;-60
2022/05/13 10:46:11;;;;;;;6.00;2.13;;;19.50;45.60;;;;;;5033140;28;20457;-60
2022/05/13 10:48:38;;;;;;;5.50;2.40;;;19.50;45.30;;;;;;5032781;28;20464;-60
2022/05/13 10:51:17;;;;;;;4.60;2.10;;;19.50;45.20;;;;;;5033250;28;20485;-61
2022/05/13 10:54:04;;;;;;;5.87;3.00;;;19.40;44.80;;;;;;5034349;28;20448;-60
2022/05/13 10:56:40;;;;;;;3.60;2.30;;;19.30;45.20;;;;;;5034141;28;20437;-60
2022/05/13 10:59:17;;;;;;;9.60;2.73;;;19.40;45.30;;;;;;5033261;28;20552;-61
2022/05/13 11:01:54;;;;;;;4.73;2.70;;;19.50;45.10;;;;;;5033637;28;20433;-60
2022/05/13 11:04:29;;;;;;;3.77;2.40;;;19.50;45.00;;;;;;5033369;28;20441;-60
2022/05/13 11:07:08;;;;;;;5.27;2.40;;;19.40;45.00;;;;;;5033641;28;20436;-60
2022/05/13 11:09:47;;;;;;;4.63;2.30;;;19.40;45.30;;;;;;5033380;28;20444;-60
2022/05/13 11:12:26;;;;;;;6.13;2.43;;;19.50;45.20;;;;;;5033835;28;20432;-59
2022/05/13 11:15:12;;;;;;;7.13;1.93;;;19.50;44.90;;;;;;5033797;28;20430;-60
2022/05/13 11:17:50;;;;;;;4.97;2.47;;;19.30;44.80;;;;;;5031249;28;20461;-59
2022/05/13 11:20:25;;;;;;;4.07;2.47;;;19.20;45.20;;;;;;5033190;28;20440;-59
2022/05/13 11:23:01;;;;;;;4.90;2.72;;;19.10;45.50;;;;;;5033086;28;20445;-59
2022/05/13 11:25:57;;;;;;;3.53;2.50;;;19.10;45.80;;;;;;5032374;28;20198;-58
2022/05/13 11:28:51;;;;;;;5.37;2.73;;;19.10;45.80;;;;;;5032829;28;20988;-60
2022/05/13 11:31:35;;;;;;;5.00;2.40;;;19.00;46.10;;;;;;5026940;28;20473;-60
2022/05/13 11:34:11;;;;;;;4.33;2.53;;;18.90;46.00;;;;;;5032799;28;20448;-61
2022/05/13 11:36:46;;;;;;;4.67;3.10;;;18.90;46.20;;;;;;5032721;28;20441;-61
2022/05/13 11:39:41;;;;;;;6.70;2.70;;;18.90;46.40;;;;;;5013420;28;20491;-59
2022/05/13 11:42:22;;;;;;;9.53;3.17;;;18.90;46.50;;;;;;5011955;28;20462;-59
2022/05/13 11:45:09;;;;;;;4.73;2.63;;;18.50;47.00;;;;;;5013162;28;20441;-60
2022/05/13 11:47:45;;;;;;;4.67;2.50;;;18.30;47.70;;;;;;5013164;28;20529;-60
2022/05/13 11:50:13;;;;;;;3.33;2.40;;;18.10;48.20;;;;;;5013608;28;20477;-61
2022/05/13 11:52:49;;;;;;;5.53;2.93;;;17.80;48.60;;;;;;5012917;28;20876;-61
2022/05/13 11:55:23;;;;;;;4.70;2.80;;;17.60;49.00;;;;;;5031018;28;20971;-60
2022/05/13 11:57:51;;;;;;;5.43;2.40;;;17.70;49.20;;;;;;5032518;28;20499;-60
2022/05/13 12:00:42;;;;;;;4.27;2.90;;;17.90;49.20;;;;;;5032577;28;20449;-62
2022/05/13 12:03:19;;;;;;;5.50;2.57;;;18.30;48.90;;;;;;5027264;28;20460;-60
2022/05/13 12:06:02;;;;;;;6.87;3.03;;;18.70;48.10;;;;;;5032876;28;20536;-60
2022/05/13 12:08:38;;;;;;;7.33;2.70;;;18.90;47.60;;;;;;5032806;28;20839;-60
2022/05/13 12:11:36;;;;;;;5.40;2.33;;;19.10;47.40;;;;;;5031987;28;20473;-60
2022/05/13 12:14:13;;;;;;;6.70;2.60;;;19.40;47.10;;;;;;5032579;28;20439;-59
2022/05/13 12:16:49;;;;;;;5.70;2.10;;;19.30;46.80;;;;;;5032273;28;20425;-60
2022/05/13 12:19:31;;;;;;;4.17;2.20;;;19.00;46.80;;;;;;5031992;28;20956;-60
2022/05/13 12:22:05;;;;;;;6.53;2.10;;;18.70;47.40;;;;;;5031733;28;20444;-61
2022/05/13 12:24:56;;;;;;;6.77;2.30;;;18.40;48.10;;;;;;5032708;28;20201;-63
2022/05/13 12:27:36;;;;;;;6.00;2.13;;;18.20;48.60;;;;;;5031376;28;20469;-63
2022/05/13 12:30:11;;;;;;;5.27;2.90;;;18.20;48.40;;;;;;5034020;28;20425;-65
2022/05/13 12:32:44;;;;;;;3.57;2.10;;;18.40;47.70;;;;;;5036251;28;20440;-64
2022/05/13 12:38:10;;;;;;;5.33;2.57;;;18.80;47.30;;;;;;5017747;28;20469;-63
2022/05/13 12:40:45;;;;;;;6.17;2.20;;;18.90;47.00;;;;;;5016148;28;20429;-64
2022/05/13 12:43:19;;;;;;;5.73;2.77;;;19.00;46.80;;;;;;5016399;28;20931;-62
2022/05/13 12:46:13;;;;;;;3.90;2.27;;;18.80;46.80;;;;;;5034983;28;20449;-62
2022/05/13 12:51:43;;;;;;;5.63;2.50;;;18.60;47.30;;;;;;5090388;27;20521;-63
2022/05/13 12:54:11;;;;;;;7.40;2.60;;;18.60;47.70;;;;;;5090293;28;20450;-62
2022/05/13 12:56:41;;;;;;;5.40;2.70;;;18.70;47.70;;;;;;5090526;28;20450;-63
2022/05/13 12:59:13;;;;;;;4.07;2.30;;;18.90;47.30;;;;;;5069899;28;20478;-62
2022/05/13 13:01:43;;;;;;;5.40;2.20;;;19.10;46.80;;;;;;5070411;28;20777;-62
2022/05/13 13:04:12;;;;;;;7.17;3.17;;;19.20;46.60;;;;;;5070924;28;20486;-65
2022/05/13 13:06:43;;;;;;;5.23;2.40;;;19.30;46.40;;;;;;5069109;28;20454;-61
2022/05/13 13:09:20;;;;;;;4.33;2.00;;;19.30;46.30;;;;;;5070216;28;20908;-61
2022/05/13 13:11:59;;;;;;;3.97;2.17;;;19.40;46.00;;;;;;5070036;28;20442;-62
2022/05/13 13:14:42;;;;;;;6.23;2.97;;;19.40;45.60;;;;;;5070135;28;20435;-61
2022/05/13 13:17:19;;;;;;;5.53;2.20;;;19.40;45.70;;;;;;5069899;28;20446;-61
2022/05/13 13:19:47;;;;;;;4.50;2.47;;;19.40;45.90;;;;;;5069864;28;20431;-62
2022/05/13 13:22:22;;;;;;;4.10;2.27;;;19.40;46.10;;;;;;5070205;28;20455;-61
2022/05/13 13:24:49;;;;;;;5.10;2.67;;;19.50;46.20;;;;;;5070185;28;20438;-61
2022/05/13 13:27:20;;;;;;;3.97;2.57;;;19.60;46.20;;;;;;5070440;28;20466;-61
2022/05/13 13:29:49;;;;;;;3.90;2.60;;;19.70;46.10;;;;;;5069234;28;20467;-61
2022/05/13 13:32:18;;;;;;;4.30;2.50;;;19.80;46.20;;;;;;5070682;28;20443;-61
2022/05/13 13:34:52;;;;;;;3.70;2.40;;;19.70;46.10;;;;;;5069900;28;20442;-61
2022/05/13 13:37:23;;;;;;;4.93;2.40;;;19.90;46.40;;;;;;5068922;28;20467;-61
2022/05/13 13:39:50;;;;;;;6.03;2.83;;;20.10;46.00;;;;;;5069198;28;20777;-62
2022/05/13 13:42:19;;;;;;;4.47;2.50;;;20.40;45.50;;;;;;5068954;28;20974;-62
2022/05/13 13:44:48;;;;;;;7.87;2.90;;;20.40;45.00;;;;;;5069353;28;20450;-62
2022/05/13 13:47:30;;;;;;;3.47;2.50;;;20.20;44.40;;;;;;5068753;28;20459;-60
2022/05/13 13:49:58;;;;;;;4.80;2.67;;;20.00;44.80;;;;;;5068786;28;20514;-61
2022/05/13 13:52:31;;;;;;;4.33;2.00;;;19.90;44.90;;;;;;5068987;28;20474;-62
2022/05/13 13:55:02;;;;;;;3.03;2.30;;;19.90;44.80;;;;;;5069031;28;20439;-62
2022/05/13 13:57:46;;;;;;;4.20;2.80;;;19.90;44.50;;;;;;5069147;28;20475;-62
2022/05/13 14:00:21;;;;;;;8.33;2.57;;;19.90;44.60;;;;;;5068536;28;20427;-61
2022/05/13 14:02:51;;;;;;;3.27;2.30;;;19.90;44.70;;;;;;5056018;28;20854;-62
2022/05/13 14:05:21;;;;;;;5.93;3.67;;;20.00;45.00;;;;;;5055433;28;20870;-61